sensor_id;sensor_type;location;lat;lon;timestamp;pressure;altitude;pressure_sealevel;temperature;humidity
19845;BME280;10083;51.038;7.012;2023-05-02T11:01:54;106346.25;;;16.22;nan
19845;BME280;10083;51.038;7.012;2023-05-02T11:04:58;105961.28;;;17.58;nan
19845;BME280;10083;51.038;7.012;2023-05-02T11:07:28;105163.53;;;16.47;nan
19845;BME280;10083;51.038;7.012;2023-05-02T11:10:31;104565.34;;;15.79;nan
19845;BME280;10083;51.038;7.012;2023-05-02T11:12:58;104432.69;;;15.64;nan
19845;BME280;10083;51.038;7.012;2023-05-02T11:15:54;104265.41;;;15.89;nan
19845;BME280;10083;51.038;7.012;2023-05-02T11:18:26;104280.44;;;16.47;nan
19845;BME280;10083;51.038;7.012;2023-05-02T11:21:26;104312.59;;;17.19;nan
19845;BME280;10083;51.038;7.012;2023-05-02T11:27:37;104122.56;;;16.40;nan
19845;BME280;10083;51.038;7.012;2023-05-02T11:30:42;104077.94;;;15.80;nan
19845;BME280;10083;51.038;7.012;2023-05-02T11:33:17;104149.09;;;15.79;nan
19845;BME280;10083;51.038;7.012;2023-05-02T11:35:53;104270.56;;;16.55;nan
19845;BME280;10083;51.038;7.012;2023-05-02T11:38:21;104237.44;;;16.82;nan
19845;BME280;10083;51.038;7.012;2023-05-02T11:41:01;104254.25;;;18.98;nan
19845;BME280;10083;51.038;7.012;2023-05-02T11:43:29;103898.66;;;19.64;nan
19845;BME280;10083;51.038;7.012;2023-05-02T11:46:00;103975.91;;;20.34;nan
19845;BME280;10083;51.038;7.012;2023-05-02T11:48:33;104337.09;;;21.37;nan
19845;BME280;10083;51.038;7.012;2023-05-02T11:51:13;104268.19;;;20.19;nan
19845;BME280;10083;51.038;7.012;2023-05-02T11:53:39;104263.94;;;19.78;nan
19845;BME280;10083;51.038;7.012;2023-05-02T11:56:12;104336.44;;;19.87;nan
19845;BME280;10083;51.038;7.012;2023-05-02T11:58:39;104379.34;;;20.90;nan
19845;BME280;10083;51.038;7.012;2023-05-02T12:01:15;104152.94;;;18.34;nan
19845;BME280;10083;51.038;7.012;2023-05-02T12:03:43;103936.97;;;17.03;nan
19845;BME280;10083;51.038;7.012;2023-05-02T12:06:14;103752.81;;;16.42;nan
19845;BME280;10083;51.038;7.012;2023-05-02T12:08:43;103569.84;;;15.65;nan
19845;BME280;10083;51.038;7.012;2023-05-02T12:11:16;103409.56;;;15.13;nan
19845;BME280;10083;51.038;7.012;2023-05-02T12:13:44;103286.22;;;15.44;nan
19845;BME280;10083;51.038;7.012;2023-05-02T12:16:14;103251.88;;;15.79;nan
19845;BME280;10083;51.038;7.012;2023-05-02T12:18:42;103221.41;;;15.36;nan
19845;BME280;10083;51.038;7.012;2023-05-02T12:21:14;103226.88;;;16.77;nan
19845;BME280;10083;51.038;7.012;2023-05-02T12:23:42;103263.25;;;18.08;nan
19845;BME280;10083;51.038;7.012;2023-05-02T12:26:23;103401.50;;;20.32;nan
19845;BME280;10083;51.038;7.012;2023-05-02T12:28:54;103745.13;;;21.87;nan
19845;BME280;10083;51.038;7.012;2023-05-02T12:31:31;104001.50;;;21.99;nan
19845;BME280;10083;51.038;7.012;2023-05-02T12:33:58;104096.31;;;22.37;nan
19845;BME280;10083;51.038;7.012;2023-05-02T12:36:32;104195.03;;;21.55;nan
19845;BME280;10083;51.038;7.012;2023-05-02T12:39:00;104121.72;;;19.58;nan
19845;BME280;10083;51.038;7.012;2023-05-02T12:41:33;104123.00;;;18.80;nan
19845;BME280;10083;51.038;7.012;2023-05-02T12:44:00;104110.16;;;19.17;nan
19845;BME280;10083;51.038;7.012;2023-05-02T12:46:28;104112.03;;;19.03;nan
19845;BME280;10083;51.038;7.012;2023-05-02T12:49:03;104046.19;;;16.96;nan
19845;BME280;10083;51.038;7.012;2023-05-02T12:51:37;103968.41;;;16.55;nan
19845;BME280;10083;51.038;7.012;2023-05-02T12:54:04;103934.97;;;16.34;nan
19845;BME280;10083;51.038;7.012;2023-05-02T12:56:39;103833.97;;;16.27;nan
19845;BME280;10083;51.038;7.012;2023-05-02T12:59:08;103802.75;;;15.14;nan
19845;BME280;10083;51.038;7.012;2023-05-02T13:01:37;103728.19;;;15.33;nan
19845;BME280;10083;51.038;7.012;2023-05-02T13:08:12;103642.81;;;15.74;nan
19845;BME280;10083;51.038;7.012;2023-05-02T13:10:39;103674.38;;;16.47;nan
19845;BME280;10083;51.038;7.012;2023-05-02T13:13:07;103759.97;;;17.28;nan
19845;BME280;10083;51.038;7.012;2023-05-02T13:15:33;103797.84;;;17.66;nan
19845;BME280;10083;51.038;7.012;2023-05-02T13:18:08;103858.97;;;18.29;nan
19845;BME280;10083;51.038;7.012;2023-05-02T13:20:35;104022.22;;;20.30;nan
19845;BME280;10083;51.038;7.012;2023-05-02T13:23:08;104001.84;;;18.58;nan
19845;BME280;10083;51.038;7.012;2023-05-02T13:25:36;104004.72;;;17.88;nan
19845;BME280;10083;51.038;7.012;2023-05-02T13:28:15;103971.75;;;15.98;nan
19845;BME280;10083;51.038;7.012;2023-05-02T13:30:42;103958.63;;;16.88;nan
19845;BME280;10083;51.038;7.012;2023-05-02T13:33:15;103948.69;;;17.00;nan
19845;BME280;10083;51.038;7.012;2023-05-02T13:35:42;103962.22;;;16.96;nan
19845;BME280;10083;51.038;7.012;2023-05-02T13:38:13;103951.41;;;17.32;nan
19845;BME280;10083;51.038;7.012;2023-05-02T13:40:42;103939.69;;;17.13;nan
19845;BME280;10083;51.038;7.012;2023-05-02T13:43:10;103952.31;;;17.72;nan
19845;BME280;10083;51.038;7.012;2023-05-02T13:45:37;104070.16;;;19.45;nan
19845;BME280;10083;51.038;7.012;2023-05-02T13:48:19;104010.03;;;18.29;nan
19845;BME280;10083;51.038;7.012;2023-05-02T13:50:46;104007.78;;;19.20;nan
19845;BME280;10083;51.038;7.012;2023-05-02T13:53:13;103950.28;;;18.41;nan
19845;BME280;10083;51.038;7.012;2023-05-02T13:55:42;103940.41;;;18.19;nan
19845;BME280;10083;51.038;7.012;2023-05-02T13:58:09;103943.75;;;18.80;nan
19845;BME280;10083;51.038;7.012;2023-05-02T14:00:36;103924.69;;;18.92;nan
19845;BME280;10083;51.038;7.012;2023-05-02T14:03:09;103873.75;;;17.28;nan
19845;BME280;10083;51.038;7.012;2023-05-02T14:05:39;103885.72;;;18.93;nan
19845;BME280;10083;51.038;7.012;2023-05-02T14:08:10;103835.94;;;20.45;nan
19845;BME280;10083;51.038;7.012;2023-05-02T14:10:44;103737.69;;;20.02;nan
19845;BME280;10083;51.038;7.012;2023-05-02T14:13:13;103647.03;;;20.00;nan
19845;BME280;10083;51.038;7.012;2023-05-02T14:15:41;103583.78;;;19.23;nan
19845;BME280;10083;51.038;7.012;2023-05-02T14:18:11;103528.31;;;20.87;nan
19845;BME280;10083;51.038;7.012;2023-05-02T14:20:50;103417.97;;;22.09;nan
19845;BME280;10083;51.038;7.012;2023-05-02T14:24:08;103345.53;;;20.96;nan
19845;BME280;10083;51.038;7.012;2023-05-02T14:26:40;103309.47;;;21.22;nan
19845;BME280;10083;51.038;7.012;2023-05-02T14:29:16;103310.47;;;20.82;nan
19845;BME280;10083;51.038;7.012;2023-05-02T14:31:49;103320.09;;;20.97;nan
19845;BME280;10083;51.038;7.012;2023-05-02T14:34:35;103315.25;;;21.42;nan
19845;BME280;10083;51.038;7.012;2023-05-02T14:38:02;103321.47;;;22.39;nan
19845;BME280;10083;51.038;7.012;2023-05-02T14:41:12;103330.06;;;20.61;nan
19845;BME280;10083;51.038;7.012;2023-05-02T14:44:10;103334.94;;;21.20;nan
19845;BME280;10083;51.038;7.012;2023-05-02T14:47:09;103351.47;;;22.12;nan
19845;BME280;10083;51.038;7.012;2023-05-02T14:49:55;103314.47;;;22.31;nan
19845;BME280;10083;51.038;7.012;2023-05-02T14:52:27;103333.59;;;21.01;nan
19845;BME280;10083;51.038;7.012;2023-05-02T14:56:10;103368.69;;;20.40;nan
19845;BME280;10083;51.038;7.012;2023-05-02T14:58:50;103369.13;;;20.18;nan
19845;BME280;10083;51.038;7.012;2023-05-02T15:01:38;103384.88;;;21.23;nan
19845;BME280;10083;51.038;7.012;2023-05-02T15:04:51;103420.28;;;18.97;nan
19845;BME280;10083;51.038;7.012;2023-05-02T15:07:25;103406.16;;;19.81;nan
19845;BME280;10083;51.038;7.012;2023-05-02T15:10:27;103388.25;;;20.57;nan
19845;BME280;10083;51.038;7.012;2023-05-02T15:13:27;103383.91;;;20.87;nan
19845;BME280;10083;51.038;7.012;2023-05-02T15:15:58;103401.44;;;19.91;nan
19845;BME280;10083;51.038;7.012;2023-05-02T15:18:48;103375.03;;;21.49;nan
19845;BME280;10083;51.038;7.012;2023-05-02T15:21:46;103333.63;;;21.67;nan
19845;BME280;10083;51.038;7.012;2023-05-02T15:24:27;103351.84;;;21.33;nan
19845;BME280;10083;51.038;7.012;2023-05-02T15:30:34;103363.19;;;21.50;nan
19845;BME280;10083;51.038;7.012;2023-05-02T15:33:11;103348.84;;;20.71;nan
19845;BME280;10083;51.038;7.012;2023-05-02T15:35:53;103392.91;;;20.09;nan
19845;BME280;10083;51.038;7.012;2023-05-02T15:38:25;103403.28;;;20.33;nan
19845;BME280;10083;51.038;7.012;2023-05-02T15:41:05;103397.00;;;21.08;nan
19845;BME280;10083;51.038;7.012;2023-05-02T15:43:39;103422.28;;;19.92;nan
19845;BME280;10083;51.038;7.012;2023-05-02T15:46:15;103391.28;;;20.83;nan
19845;BME280;10083;51.038;7.012;2023-05-02T15:48:44;103375.88;;;20.41;nan
19845;BME280;10083;51.038;7.012;2023-05-02T15:51:22;103384.31;;;19.85;nan
19845;BME280;10083;51.038;7.012;2023-05-02T15:53:49;103444.28;;;19.26;nan
19845;BME280;10083;51.038;7.012;2023-05-02T15:56:27;103452.66;;;19.12;nan
19845;BME280;10083;51.038;7.012;2023-05-02T15:59:05;103468.63;;;18.74;nan
19845;BME280;10083;51.038;7.012;2023-05-02T16:01:44;103459.31;;;18.91;nan
19845;BME280;10083;51.038;7.012;2023-05-02T16:04:14;103491.19;;;18.79;nan
19845;BME280;10083;51.038;7.012;2023-05-02T16:06:50;103492.69;;;19.01;nan
19845;BME280;10083;51.038;7.012;2023-05-02T16:09:40;103509.03;;;18.20;nan
19845;BME280;10083;51.038;7.012;2023-05-02T16:12:20;103508.91;;;18.34;nan
19845;BME280;10083;51.038;7.012;2023-05-02T16:14:50;103516.47;;;18.04;nan
19845;BME280;10083;51.038;7.012;2023-05-02T16:17:26;103502.84;;;18.09;nan
19845;BME280;10083;51.038;7.012;2023-05-02T16:19:58;103513.28;;;18.45;nan
19845;BME280;10083;51.038;7.012;2023-05-02T16:22:33;103517.31;;;18.06;nan
19845;BME280;10083;51.038;7.012;2023-05-02T16:25:01;103513.25;;;17.54;nan
19845;BME280;10083;51.038;7.012;2023-05-02T16:27:36;103534.81;;;17.72;nan
19845;BME280;10083;51.038;7.012;2023-05-02T16:30:04;103537.78;;;17.37;nan
19845;BME280;10083;51.038;7.012;2023-05-02T16:32:46;103546.03;;;17.14;nan
19845;BME280;10083;51.038;7.012;2023-05-02T16:35:16;103534.41;;;16.99;nan
19845;BME280;10083;51.038;7.012;2023-05-02T16:37:54;103532.66;;;16.87;nan
19845;BME280;10083;51.038;7.012;2023-05-02T16:40:21;103545.41;;;16.56;nan
19845;BME280;10083;51.038;7.012;2023-05-02T16:42:55;103541.72;;;16.80;nan
19845;BME280;10083;51.038;7.012;2023-05-02T16:45:22;103541.81;;;16.36;nan
19845;BME280;10083;51.038;7.012;2023-05-02T16:47:55;103541.91;;;15.72;nan
19845;BME280;10083;51.038;7.012;2023-05-02T16:50:22;103551.69;;;15.10;nan
19845;BME280;10083;51.038;7.012;2023-05-02T16:52:57;103540.06;;;15.26;nan
19845;BME280;10083;51.038;7.012;2023-05-02T16:55:24;103532.78;;;15.02;nan
19845;BME280;10083;51.038;7.012;2023-05-02T16:57:55;103523.81;;;15.05;nan
19845;BME280;10083;51.038;7.012;2023-05-02T17:00:23;103506.56;;;14.66;nan
19845;BME280;10083;51.038;7.012;2023-05-02T17:02:50;103490.50;;;15.06;nan
19845;BME280;10083;51.038;7.012;2023-05-02T17:05:37;103481.53;;;15.22;nan
19845;BME280;10083;51.038;7.012;2023-05-02T17:08:07;103466.25;;;15.33;nan
19845;BME280;10083;51.038;7.012;2023-05-02T17:10:40;103460.84;;;15.24;nan
19845;BME280;10083;51.038;7.012;2023-05-02T17:13:08;103446.41;;;14.94;nan
19845;BME280;10083;51.038;7.012;2023-05-02T17:15:37;103450.81;;;14.56;nan
19845;BME280;10083;51.038;7.012;2023-05-02T17:18:04;103429.09;;;14.30;nan
19845;BME280;10083;51.038;7.012;2023-05-02T17:20:31;103409.25;;;14.09;nan
19845;BME280;10083;51.038;7.012;2023-05-02T17:22:59;103395.56;;;13.75;nan
19845;BME280;10083;51.038;7.012;2023-05-02T17:25:35;103399.91;;;13.53;nan
19845;BME280;10083;51.038;7.012;2023-05-02T17:28:03;103448.38;;;13.53;nan
19845;BME280;10083;51.038;7.012;2023-05-02T17:30:30;103546.94;;;13.36;nan
19845;BME280;10083;51.038;7.012;2023-05-02T17:32:59;103577.31;;;13.22;nan
19845;BME280;10083;51.038;7.012;2023-05-02T17:35:26;103580.00;;;13.22;nan
19845;BME280;10083;51.038;7.012;2023-05-02T17:37:59;103562.81;;;13.10;nan
19845;BME280;10083;51.038;7.012;2023-05-02T17:40:27;103508.06;;;13.08;nan
19845;BME280;10083;51.038;7.012;2023-05-02T17:42:58;103448.81;;;13.04;nan
19845;BME280;10083;51.038;7.012;2023-05-02T17:45:26;103404.97;;;13.11;nan
19845;BME280;10083;51.038;7.012;2023-05-02T17:47:56;103382.59;;;13.17;nan
19845;BME280;10083;51.038;7.012;2023-05-02T17:50:24;103413.06;;;13.14;nan
19845;BME280;10083;51.038;7.012;2023-05-02T17:52:58;103400.59;;;13.21;nan
19845;BME280;10083;51.038;7.012;2023-05-02T17:55:25;103372.75;;;13.20;nan
19845;BME280;10083;51.038;7.012;2023-05-02T17:58:03;103373.44;;;12.98;nan
19845;BME280;10083;51.038;7.012;2023-05-02T18:00:30;103421.88;;;12.96;nan
19845;BME280;10083;51.038;7.012;2023-05-02T18:02:59;103426.31;;;12.94;nan
19845;BME280;10083;51.038;7.012;2023-05-02T18:05:26;103438.81;;;12.89;nan
19845;BME280;10083;51.038;7.012;2023-05-02T18:07:59;103444.06;;;12.77;nan
19845;BME280;10083;51.038;7.012;2023-05-02T18:10:27;103442.09;;;12.61;nan
19845;BME280;10083;51.038;7.012;2023-05-02T18:12:55;103452.03;;;12.68;nan
19845;BME280;10083;51.038;7.012;2023-05-02T18:15:23;103470.69;;;12.57;nan
19845;BME280;10083;51.038;7.012;2023-05-02T18:17:55;103475.03;;;12.43;nan
19845;BME280;10083;51.038;7.012;2023-05-02T18:20:22;103500.84;;;12.31;nan
19845;BME280;10083;51.038;7.012;2023-05-02T18:22:49;103517.84;;;12.30;nan
19845;BME280;10083;51.038;7.012;2023-05-02T18:25:17;103521.28;;;12.19;nan
19845;BME280;10083;51.038;7.012;2023-05-02T18:27:48;103528.25;;;12.07;nan
19845;BME280;10083;51.038;7.012;2023-05-02T18:30:15;103523.72;;;12.03;nan
19845;BME280;10083;51.038;7.012;2023-05-02T18:32:46;103563.69;;;11.83;nan
19845;BME280;10083;51.038;7.012;2023-05-02T18:35:13;103596.66;;;11.76;nan
19845;BME280;10083;51.038;7.012;2023-05-02T18:37:41;103596.53;;;11.70;nan
19845;BME280;10083;51.038;7.012;2023-05-02T18:40:08;103583.13;;;11.70;nan
19845;BME280;10083;51.038;7.012;2023-05-02T18:42:35;103588.97;;;11.49;nan
19845;BME280;10083;51.038;7.012;2023-05-02T18:45:02;103595.25;;;11.50;nan
19845;BME280;10083;51.038;7.012;2023-05-02T18:47:33;103613.03;;;11.45;nan
19845;BME280;10083;51.038;7.012;2023-05-02T18:50:02;103605.81;;;11.39;nan
19845;BME280;10083;51.038;7.012;2023-05-02T18:52:33;103604.50;;;11.19;nan
19845;BME280;10083;51.038;7.012;2023-05-02T18:55:00;103616.19;;;11.21;nan
19845;BME280;10083;51.038;7.012;2023-05-02T18:57:32;103615.94;;;11.10;nan
19845;BME280;10083;51.038;7.012;2023-05-02T18:59:59;103615.75;;;11.00;nan
19845;BME280;10083;51.038;7.012;2023-05-02T19:02:26;103612.34;;;11.08;nan
19845;BME280;10083;51.038;7.012;2023-05-02T19:04:55;103612.19;;;11.02;nan
19845;BME280;10083;51.038;7.012;2023-05-02T19:07:24;103623.59;;;10.91;nan
19845;BME280;10083;51.038;7.012;2023-05-02T19:10:04;103634.88;;;10.76;nan
19845;BME280;10083;51.038;7.012;2023-05-02T19:12:31;103665.81;;;10.62;nan
19845;BME280;10083;51.038;7.012;2023-05-02T19:14:59;103709.25;;;10.49;nan
19845;BME280;10083;51.038;7.012;2023-05-02T19:17:26;103744.31;;;10.58;nan
19845;BME280;10083;51.038;7.012;2023-05-02T19:19:53;103754.09;;;10.56;nan
19845;BME280;10083;51.038;7.012;2023-05-02T19:22:20;103775.13;;;10.40;nan
19845;BME280;10083;51.038;7.012;2023-05-02T19:24:52;103801.28;;;10.16;nan
19845;BME280;10083;51.038;7.012;2023-05-02T19:27:19;103829.88;;;10.17;nan
19845;BME280;10083;51.038;7.012;2023-05-02T19:29:51;103859.03;;;10.08;nan
19845;BME280;10083;51.038;7.012;2023-05-02T19:32:18;103879.13;;;9.94;nan
19845;BME280;10083;51.038;7.012;2023-05-02T19:34:48;103902.25;;;9.92;nan
19845;BME280;10083;51.038;7.012;2023-05-02T19:37:15;103911.03;;;9.86;nan
19845;BME280;10083;51.038;7.012;2023-05-02T19:39:48;103926.97;;;9.83;nan
19845;BME280;10083;51.038;7.012;2023-05-02T19:42:16;103937.38;;;9.73;nan
19845;BME280;10083;51.038;7.012;2023-05-02T19:44:43;103951.47;;;9.67;nan
19845;BME280;10083;51.038;7.012;2023-05-02T19:47:12;103958.50;;;9.64;nan
19845;BME280;10083;51.038;7.012;2023-05-02T19:49:45;103945.44;;;9.46;nan
19845;BME280;10083;51.038;7.012;2023-05-02T19:52:12;103951.47;;;9.40;nan
19845;BME280;10083;51.038;7.012;2023-05-02T19:54:45;103925.41;;;9.33;nan
19845;BME280;10083;51.038;7.012;2023-05-02T19:57:12;103881.50;;;9.27;nan
19845;BME280;10083;51.038;7.012;2023-05-02T19:59:41;103827.38;;;9.07;nan
19845;BME280;10083;51.038;7.012;2023-05-02T20:02:10;103778.13;;;8.99;nan
19845;BME280;10083;51.038;7.012;2023-05-02T20:04:37;103699.56;;;8.94;nan
19845;BME280;10083;51.038;7.012;2023-05-02T20:07:04;103625.56;;;8.91;nan
19845;BME280;10083;51.038;7.012;2023-05-02T20:09:31;103530.03;;;8.84;nan
19845;BME280;10083;51.038;7.012;2023-05-02T20:12:01;103403.72;;;8.90;nan
19845;BME280;10083;51.038;7.012;2023-05-02T20:14:28;103318.22;;;8.90;nan
19845;BME280;10083;51.038;7.012;2023-05-02T20:17:01;103242.44;;;8.88;nan
19845;BME280;10083;51.038;7.012;2023-05-02T20:19:29;103145.06;;;8.74;nan
19845;BME280;10083;51.038;7.012;2023-05-02T20:21:57;103057.50;;;8.60;nan
19845;BME280;10083;51.038;7.012;2023-05-02T20:24:24;102904.31;;;8.55;nan
19845;BME280;10083;51.038;7.012;2023-05-02T20:26:54;102744.00;;;8.51;nan
19845;BME280;10083;51.038;7.012;2023-05-02T20:29:21;102747.28;;;8.35;nan
19845;BME280;10083;51.038;7.012;2023-05-02T20:32:04;102683.94;;;8.28;nan
19845;BME280;10083;51.038;7.012;2023-05-02T20:34:32;102706.97;;;8.23;nan
19845;BME280;10083;51.038;7.012;2023-05-02T20:37:00;102762.78;;;8.09;nan
19845;BME280;10083;51.038;7.012;2023-05-02T20:39:28;102755.53;;;8.02;nan
19845;BME280;10083;51.038;7.012;2023-05-02T20:41:55;102765.91;;;7.87;nan
19845;BME280;10083;51.038;7.012;2023-05-02T20:44:22;102804.78;;;7.76;nan
19845;BME280;10083;51.038;7.012;2023-05-02T20:47:08;102920.97;;;7.64;nan
19845;BME280;10083;51.038;7.012;2023-05-02T20:49:35;103075.47;;;7.58;nan
19845;BME280;10083;51.038;7.012;2023-05-02T20:52:02;103251.16;;;7.49;nan
19845;BME280;10083;51.038;7.012;2023-05-02T20:54:29;103528.16;;;7.42;nan
19845;BME280;10083;51.038;7.012;2023-05-02T20:57:03;103833.72;;;7.38;nan
19845;BME280;10083;51.038;7.012;2023-05-02T20:59:55;104125.72;;;7.30;nan
19845;BME280;10083;51.038;7.012;2023-05-02T21:02:25;104316.31;;;7.20;nan
19845;BME280;10083;51.038;7.012;2023-05-02T21:05:00;104531.97;;;7.16;nan
19845;BME280;10083;51.038;7.012;2023-05-02T21:07:27;104736.13;;;7.12;nan
19845;BME280;10083;51.038;7.012;2023-05-02T21:09:55;104891.91;;;7.03;nan
19845;BME280;10083;51.038;7.012;2023-05-02T21:12:22;105079.28;;;7.02;nan
19845;BME280;10083;51.038;7.012;2023-05-02T21:15:00;105195.91;;;6.91;nan
19845;BME280;10083;51.038;7.012;2023-05-02T21:17:28;105333.75;;;6.80;nan
19845;BME280;10083;51.038;7.012;2023-05-02T21:19:55;105506.72;;;6.77;nan
19845;BME280;10083;51.038;7.012;2023-05-02T21:22:22;105660.31;;;6.77;nan
19845;BME280;10083;51.038;7.012;2023-05-02T21:24:51;105810.22;;;6.74;nan
19845;BME280;10083;51.038;7.012;2023-05-02T21:27:18;105974.94;;;6.68;nan
19845;BME280;10083;51.038;7.012;2023-05-02T21:29:52;106153.88;;;6.63;nan
19845;BME280;10083;51.038;7.012;2023-05-02T21:32:19;106380.75;;;6.57;nan
19845;BME280;10083;51.038;7.012;2023-05-02T21:34:54;106641.41;;;6.53;nan
19845;BME280;10083;51.038;7.012;2023-05-02T21:37:21;106912.25;;;6.52;nan
19845;BME280;10083;51.038;7.012;2023-05-02T21:39:49;107132.31;;;6.42;nan
19845;BME280;10083;51.038;7.012;2023-05-02T21:42:16;107474.84;;;6.40;nan
19845;BME280;10083;51.038;7.012;2023-05-02T21:44:45;107793.75;;;6.41;nan
19845;BME280;10083;51.038;7.012;2023-05-02T21:47:12;107954.81;;;6.35;nan
19845;BME280;10083;51.038;7.012;2023-05-02T21:49:42;108140.00;;;6.32;nan
19845;BME280;10083;51.038;7.012;2023-05-02T21:52:10;108460.31;;;6.22;nan
19845;BME280;10083;51.038;7.012;2023-05-02T21:54:37;108751.63;;;6.23;nan
19845;BME280;10083;51.038;7.012;2023-05-02T21:57:04;109055.19;;;6.28;nan
19845;BME280;10083;51.038;7.012;2023-05-02T21:59:31;109308.09;;;6.27;nan
19845;BME280;10083;51.038;7.012;2023-05-02T22:01:59;109625.00;;;6.25;nan
19845;BME280;10083;51.038;7.012;2023-05-02T22:04:26;109820.03;;;6.23;nan
19845;BME280;10083;51.038;7.012;2023-05-02T22:06:53;109962.31;;;6.18;nan
19845;BME280;10083;51.038;7.012;2023-05-02T22:09:21;110269.72;;;6.18;nan
19845;BME280;10083;51.038;7.012;2023-05-02T22:12:01;110526.75;;;6.20;nan
19845;BME280;10083;51.038;7.012;2023-05-02T22:14:28;110660.03;;;6.15;nan
19845;BME280;10083;51.038;7.012;2023-05-02T22:17:07;110774.91;;;6.00;nan
19845;BME280;10083;51.038;7.012;2023-05-02T22:19:34;110984.88;;;5.97;nan
19845;BME280;10083;51.038;7.012;2023-05-02T22:22:04;111285.50;;;5.99;nan
19845;BME280;10083;51.038;7.012;2023-05-02T22:24:32;111636.66;;;5.90;nan
19845;BME280;10083;51.038;7.012;2023-05-02T22:27:06;112069.28;;;5.91;nan
19845;BME280;10083;51.038;7.012;2023-05-02T22:29:33;112382.78;;;5.90;nan
19845;BME280;10083;51.038;7.012;2023-05-02T22:32:05;112755.28;;;5.87;nan
19845;BME280;10083;51.038;7.012;2023-05-02T22:34:32;112936.13;;;5.90;nan
19845;BME280;10083;51.038;7.012;2023-05-02T22:37:00;113043.84;;;5.86;nan
19845;BME280;10083;51.038;7.012;2023-05-02T22:39:27;113102.78;;;5.84;nan
19845;BME280;10083;51.038;7.012;2023-05-02T22:41:56;113219.22;;;5.75;nan
19845;BME280;10083;51.038;7.012;2023-05-02T22:44:24;113282.75;;;5.64;nan
19845;BME280;10083;51.038;7.012;2023-05-02T22:47:17;113575.25;;;5.57;nan
19845;BME280;10083;51.038;7.012;2023-05-02T22:49:45;113731.47;;;5.57;nan
19845;BME280;10083;51.038;7.012;2023-05-02T22:52:13;113777.81;;;5.49;nan
19845;BME280;10083;51.038;7.012;2023-05-02T22:54:42;113918.41;;;5.42;nan
19845;BME280;10083;51.038;7.012;2023-05-02T22:57:12;114037.63;;;5.43;nan
19845;BME280;10083;51.038;7.012;2023-05-02T22:59:42;114244.06;;;5.41;nan
19845;BME280;10083;51.038;7.012;2023-05-02T23:02:09;114550.13;;;5.43;nan
19845;BME280;10083;51.038;7.012;2023-05-02T23:04:38;114695.88;;;5.28;nan
19845;BME280;10083;51.038;7.012;2023-05-02T23:07:05;114797.09;;;5.24;nan
19845;BME280;10083;51.038;7.012;2023-05-02T23:09:33;114928.53;;;5.17;nan
19845;BME280;10083;51.038;7.012;2023-05-02T23:12:00;115130.94;;;5.17;nan
19845;BME280;10083;51.038;7.012;2023-05-02T23:14:28;115285.31;;;5.09;nan
19845;BME280;10083;51.038;7.012;2023-05-02T23:16:56;115608.47;;;5.05;nan
19845;BME280;10083;51.038;7.012;2023-05-02T23:19:42;115834.63;;;5.08;nan
19845;BME280;10083;51.038;7.012;2023-05-02T23:22:12;116052.75;;;5.10;nan
19845;BME280;10083;51.038;7.012;2023-05-02T23:24:44;116263.84;;;5.09;nan
19845;BME280;10083;51.038;7.012;2023-05-02T23:27:11;116374.19;;;5.03;nan
19845;BME280;10083;51.038;7.012;2023-05-02T23:29:41;116443.69;;;5.00;nan
19845;BME280;10083;51.038;7.012;2023-05-02T23:32:08;116546.63;;;4.93;nan
19845;BME280;10083;51.038;7.012;2023-05-02T23:34:35;116751.09;;;4.94;nan
19845;BME280;10083;51.038;7.012;2023-05-02T23:37:02;116993.88;;;4.96;nan
19845;BME280;10083;51.038;7.012;2023-05-02T23:39:32;117185.28;;;4.88;nan
19845;BME280;10083;51.038;7.012;2023-05-02T23:41:59;117331.41;;;4.86;nan
19845;BME280;10083;51.038;7.012;2023-05-02T23:44:31;117588.94;;;4.83;nan
19845;BME280;10083;51.038;7.012;2023-05-02T23:46:59;117900.19;;;4.82;nan
19845;BME280;10083;51.038;7.012;2023-05-02T23:49:44;118402.13;;;4.98;nan
19845;BME280;10083;51.038;7.012;2023-05-02T23:52:11;119114.75;;;5.19;nan
19845;BME280;10083;51.038;7.012;2023-05-02T23:54:39;119605.50;;;5.28;nan
19845;BME280;10083;51.038;7.012;2023-05-02T23:57:06;119730.91;;;5.14;nan
19845;BME280;10083;51.038;7.012;2023-05-02T23:59:33;119818.44;;;5.13;nan
